Time;durP1;ratioP1;P1;durP2;ratioP2;P2;SDS_P1;SDS_P2;PMS_P1;PMS_P2;Temp;Humidity;BMP_temperature;BMP_pressure;BME280_temperature;BME280_humidity;BME280_pressure;Samples;Min_cycle;Max_cycle;Signal;HPM_P1;HPM_P2
2023/04/27 00:06:18;;;;;;;4.70;2.78;;;;;;;22.07;37.01;102135.47;20947878;28;20090;-75
2023/04/27 00:16:22;;;;;;;3.35;2.53;;;;;;;22.06;37.08;102183.97;20917664;28;20455;-71
2023/04/27 00:26:23;;;;;;;5.50;2.75;;;;;;;22.01;37.60;102188.66;20916111;28;20067;-70
2023/04/27 00:36:26;;;;;;;3.97;2.35;;;;;;;21.79;37.62;102150.44;20916484;28;20098;-71
2023/04/27 00:46:28;;;;;;;4.25;2.50;;;;;;;21.93;37.38;102183.53;20916440;28;20032;-71
2023/04/27 00:56:30;;;;;;;5.07;2.80;;;;;;;22.02;37.95;102176.41;20915042;28;20049;-71
2023/04/27 01:06:31;;;;;;;4.93;2.15;;;;;;;21.77;37.92;102130.38;20914625;28;20480;-71
2023/04/27 01:16:34;;;;;;;3.75;2.20;;;;;;;22.01;37.63;102169.13;20912904;28;20052;-72
2023/04/27 01:26:35;;;;;;;4.32;2.50;;;;;;;21.91;37.61;102160.66;20913067;28;20049;-73
2023/04/27 01:36:36;;;;;;;3.88;2.22;;;;;;;22.00;37.54;102150.75;20911437;28;20041;-71
2023/04/27 01:46:38;;;;;;;4.60;2.25;;;;;;;21.93;37.56;102142.56;20911874;28;20037;-71
2023/04/27 01:56:39;;;;;;;3.00;2.22;;;;;;;21.98;37.87;102178.00;20910859;28;20103;-71
2023/04/27 02:06:40;;;;;;;3.65;2.38;;;;;;;21.98;37.57;102166.84;20910414;28;20049;-71
2023/04/27 02:16:42;;;;;;;3.17;2.20;;;;;;;21.95;36.79;102125.59;20910410;28;20029;-70
2023/04/27 02:26:46;;;;;;;3.95;2.40;;;;;;;21.82;37.33;102115.66;20909366;28;20476;-70
2023/04/27 02:36:47;;;;;;;3.70;2.15;;;;;;;21.94;36.98;102101.59;20923775;28;20045;-71
2023/04/27 02:46:49;;;;;;;2.50;2.13;;;;;;;21.80;37.09;102090.84;20924963;28;20041;-72
2023/04/27 02:56:51;;;;;;;4.80;2.08;;;;;;;21.79;37.85;102105.88;20924739;28;20076;-71
2023/04/27 03:06:55;;;;;;;3.40;2.53;;;;;;;21.81;37.48;102089.75;20972405;28;20080;-74
2023/04/27 03:16:56;;;;;;;4.40;2.15;;;;;;;21.67;37.77;102043.88;20970953;28;20093;-73
2023/04/27 03:26:58;;;;;;;3.35;2.30;;;;;;;21.88;37.48;102047.75;21004029;28;20044;-72
2023/04/27 03:36:59;;;;;;;4.28;2.40;;;;;;;21.89;37.65;102048.59;20995640;28;20041;-73
2023/04/27 03:47:07;;;;;;;2.88;2.45;;;;;;;21.89;37.50;102065.31;21002449;28;20097;-73
2023/04/27 03:57:09;;;;;;;2.53;2.05;;;;;;;21.89;37.73;102068.09;21003020;28;20110;-74
2023/04/27 04:07:10;;;;;;;3.83;2.15;;;;;;;21.78;37.49;102065.19;21002840;28;20040;-73
2023/04/27 04:17:12;;;;;;;2.72;1.90;;;;;;;21.87;37.88;102073.94;21001051;28;20025;-73
2023/04/27 04:27:16;;;;;;;2.10;1.90;;;;;;;21.81;37.69;102066.63;20973103;28;20487;-74
2023/04/27 04:37:17;;;;;;;2.05;1.80;;;;;;;21.83;37.96;102073.59;20963721;28;20541;-72
2023/04/27 04:47:19;;;;;;;5.47;2.28;;;;;;;21.87;37.62;102089.81;20988718;28;20446;-72
2023/04/27 04:57:23;;;;;;;4.90;2.00;;;;;;;21.86;37.26;102086.19;20944970;28;20103;-72
2023/04/27 05:07:24;;;;;;;2.33;1.80;;;;;;;21.86;37.38;102066.69;20979935;28;20056;-72
2023/04/27 05:17:29;;;;;;;3.83;2.05;;;;;;;21.87;37.73;102092.59;20984447;28;20036;-73
2023/04/27 05:27:30;;;;;;;2.83;1.95;;;;;;;21.69;37.77;102083.47;20959355;28;20048;-72
2023/04/27 05:37:32;;;;;;;2.70;1.88;;;;;;;21.85;37.81;102131.00;20978139;28;20365;-72
2023/04/27 05:47:33;;;;;;;2.25;2.05;;;;;;;21.81;37.73;102125.13;20910990;28;20048;-73
2023/04/27 05:57:35;;;;;;;2.58;2.05;;;;;;;21.83;37.44;102107.03;20948651;28;20049;-73
2023/04/27 06:07:36;;;;;;;2.90;1.88;;;;;;;21.62;37.76;102051.31;20982220;28;20045;-73
2023/04/27 06:17:38;;;;;;;3.03;2.03;;;;;;;21.80;37.67;102062.97;20991774;28;20044;-73
2023/04/27 06:27:39;;;;;;;3.05;1.88;;;;;;;21.80;37.54;102054.63;20990778;28;20392;-73
2023/04/27 06:37:41;;;;;;;2.28;1.67;;;;;;;21.72;37.75;102035.59;20990113;28;20032;-73
2023/04/27 06:47:42;;;;;;;2.05;1.50;;;;;;;21.81;37.65;102050.75;20990110;28;20041;-73
2023/04/27 06:57:43;;;;;;;2.80;1.63;;;;;;;21.82;37.52;102088.66;20989970;28;20386;-73
2023/04/27 07:07:45;;;;;;;1.70;1.60;;;;;;;21.43;37.75;102021.00;20989112;28;20071;-73
2023/04/27 07:17:46;;;;;;;2.00;1.67;;;;;;;21.62;37.76;102038.22;20996795;28;20029;-73
2023/04/27 07:27:48;;;;;;;2.63;1.92;;;;;;;21.73;37.73;102039.22;21004285;28;20388;-73
2023/04/27 07:37:50;;;;;;;2.95;1.85;;;;;;;21.81;37.59;102081.41;20965187;28;20106;-72
2023/04/27 07:47:52;;;;;;;2.22;1.90;;;;;;;21.69;37.74;102072.31;21004200;28;20070;-72
2023/04/27 07:57:54;;;;;;;2.10;1.75;;;;;;;21.78;37.72;102075.50;21002620;28;20102;-72
2023/04/27 08:07:55;;;;;;;2.33;1.80;;;;;;;21.80;37.88;102085.25;21002378;28;20117;-72
2023/04/27 08:17:59;;;;;;;2.25;1.85;;;;;;;21.80;37.79;102034.28;21001579;28;20094;-74
2023/04/27 08:28:01;;;;;;;2.47;1.80;;;;;;;21.80;37.76;102029.53;20999931;28;20041;-72
2023/04/27 08:38:08;;;;;;;1.52;1.42;;;;;;;21.78;37.56;102020.59;20956270;28;20032;-72
2023/04/27 08:48:09;;;;;;;2.00;1.67;;;;;;;21.79;37.78;101994.41;20916870;28;20562;-71
2023/04/27 08:58:11;;;;;;;2.85;1.65;;;;;;;21.75;37.64;101996.03;20915596;28;20090;-72
2023/04/27 09:08:12;;;;;;;2.33;1.75;;;;;;;21.78;37.63;102037.31;20979517;28;20049;-73
2023/04/27 09:18:21;;;;;;;2.50;1.73;;;;;;;21.76;37.63;102075.75;20996599;28;20483;-72
2023/04/27 09:28:26;;;;;;;4.20;2.28;;;;;;;21.75;37.57;102065.69;20996454;28;20040;-72
2023/04/27 09:38:31;;;;;;;2.45;1.40;;;;;;;21.74;37.87;102047.31;20994112;28;20399;-72
2023/04/27 09:48:32;;;;;;;1.90;1.60;;;;;;;21.77;37.50;102059.88;20972322;28;20033;-72
2023/04/27 09:59:00;;;;;;;1.77;1.67;;;;;;;21.74;37.54;102061.22;20970376;28;20067;-73
2023/04/27 10:09:05;;;;;;;2.42;2.00;;;;;;;21.69;37.60;102024.97;20991664;28;20041;-72
2023/04/27 10:19:12;;;;;;;2.13;1.73;;;;;;;21.62;37.72;102035.44;20992325;28;20033;-71
2023/04/27 10:29:20;;;;;;;2.00;1.45;;;;;;;21.62;37.62;102038.22;20978594;28;20052;-72
2023/04/27 10:39:37;;;;;;;1.70;1.60;;;;;;;21.57;37.72;102075.22;20980743;28;20102;-72
2023/04/27 10:49:38;;;;;;;1.85;1.65;;;;;;;21.49;37.92;102053.41;20977389;28;20399;-72
2023/04/27 10:59:52;;;;;;;2.72;1.88;;;;;;;21.68;39.40;102103.22;20974058;28;20040;-72
2023/04/27 11:09:53;;;;;;;5.82;1.88;;;;;;;21.71;38.95;102117.47;20942160;28;20454;-72
2023/04/27 11:19:57;;;;;;;1.90;1.70;;;;;;;21.72;38.89;102149.81;20963375;28;20103;-72
2023/04/27 11:29:58;;;;;;;2.13;1.80;;;;;;;21.71;39.08;102148.09;20997341;28;20105;-72
2023/04/27 11:40:00;;;;;;;3.22;1.80;;;;;;;21.73;38.83;102151.50;20994644;28;20041;-72
2023/04/27 11:50:06;;;;;;;1.75;1.55;;;;;;;21.63;39.00;102126.28;20986768;28;20045;-72
2023/04/27 12:00:09;;;;;;;1.50;1.40;;;;;;;21.73;39.42;102140.34;20991259;28;20044;-72
2023/04/27 12:10:14;;;;;;;26.95;2.95;;;;;;;21.68;39.08;102131.09;20964309;28;20118;-71
2023/04/27 12:20:18;;;;;;;4.80;1.80;;;;;;;21.72;39.71;102133.09;21000882;28;20040;-71
2023/04/27 12:30:20;;;;;;;3.25;1.67;;;;;;;21.71;39.43;102125.81;20971592;28;20040;-71
2023/04/27 12:40:22;;;;;;;4.13;2.10;;;;;;;21.76;39.35;102144.53;20946925;28;20457;-71
2023/04/27 12:50:23;;;;;;;11.35;2.28;;;;;;;21.75;39.36;102138.13;20960357;28;20090;-71
2023/04/27 13:00:25;;;;;;;9.02;2.80;;;;;;;21.71;39.56;102125.81;20946381;28;20037;-73
2023/04/27 13:10:28;;;;;;;3.17;1.80;;;;;;;21.59;39.71;102122.31;20914604;28;20048;-72
2023/04/27 13:20:30;;;;;;;3.83;2.03;;;;;;;21.71;39.71;102142.53;20912525;28;20041;-73
2023/04/27 13:30:31;;;;;;;2.65;1.65;;;;;;;21.72;39.62;102157.34;20912399;28;20533;-73
2023/04/27 13:40:35;;;;;;;3.45;1.60;;;;;;;21.71;39.39;102161.19;20914840;28;20033;-73
2023/04/27 13:50:37;;;;;;;2.58;1.80;;;;;;;21.60;39.71;102162.16;20984285;28;20093;-73
2023/04/27 14:00:41;;;;;;;8.93;2.20;;;;;;;21.65;40.37;102177.00;20970468;28;20048;-73
2023/04/27 14:10:44;;;;;;;6.15;2.00;;;;;;;21.65;41.19;102165.84;20991560;28;20051;-73
2023/04/27 14:20:45;;;;;;;5.18;2.40;;;;;;;21.72;40.98;102177.69;20992602;28;20067;-73
2023/04/27 14:30:47;;;;;;;3.38;2.10;;;;;;;21.71;40.39;102175.97;20991500;28;20040;-73
2023/04/27 14:40:48;;;;;;;3.70;2.00;;;;;;;21.55;40.39;102157.34;20992387;28;20121;-73
2023/04/27 14:50:49;;;;;;;4.57;2.20;;;;;;;21.59;40.68;102166.88;20991053;28;20098;-73
2023/04/27 15:00:51;;;;;;;2.33;1.95;;;;;;;21.61;39.91;102164.69;20969986;28;20079;-74
2023/04/27 15:10:56;;;;;;;3.67;1.98;;;;;;;21.70;39.93;102179.84;20986786;28;20041;-73
2023/04/27 15:20:58;;;;;;;2.08;1.70;;;;;;;21.67;39.79;102185.97;20986098;28;20094;-72
2023/04/27 15:31:00;;;;;;;3.08;1.75;;;;;;;21.47;40.34;102155.84;20985780;28;20036;-73
2023/04/27 15:41:01;;;;;;;3.53;2.15;;;;;;;21.66;40.13;102178.69;20993570;28;20037;-72
2023/04/27 15:51:05;;;;;;;3.03;1.80;;;;;;;21.66;40.06;102177.84;20940062;28;1681935;-73
2023/04/27 16:01:06;;;;;;;1.80;1.58;;;;;;;21.66;39.83;102175.06;21003049;28;20289;-73
2023/04/27 16:11:11;;;;;;;2.15;1.70;;;;;;;21.57;39.69;102157.94;21001897;28;20444;-73
2023/04/27 16:21:13;;;;;;;2.53;1.67;;;;;;;21.54;39.94;102152.91;20999865;28;20047;-74
2023/04/27 16:31:15;;;;;;;2.45;2.03;;;;;;;21.42;39.88;102143.78;21001695;28;20036;-73
2023/04/27 16:41:16;;;;;;;2.25;1.73;;;;;;;21.62;40.06;102166.34;20982277;28;20441;-73
2023/04/27 16:51:20;;;;;;;1.83;1.70;;;;;;;21.54;39.98;102158.47;20999099;28;20047;-73
2023/04/27 17:01:28;;;;;;;2.55;1.70;;;;;;;21.61;40.16;102167.47;20997955;28;20110;-73
2023/04/27 17:11:30;;;;;;;2.70;1.80;;;;;;;21.52;40.12;102160.66;20997278;28;20549;-73
2023/04/27 17:21:32;;;;;;;1.75;1.40;;;;;;;21.57;40.13;102149.56;20996043;28;20044;-73
2023/04/27 17:31:34;;;;;;;2.85;1.88;;;;;;;21.56;40.51;102142.31;20962423;28;20032;-73
2023/04/27 17:41:35;;;;;;;2.03;1.70;;;;;;;21.55;40.00;102144.28;20994345;28;20471;-73
2023/04/27 17:51:36;;;;;;;2.38;1.52;;;;;;;21.44;39.92;102119.31;20994863;28;20067;-73
2023/04/27 18:01:38;;;;;;;1.95;1.75;;;;;;;21.26;39.76;102076.72;20993418;28;20106;-73
2023/04/27 18:11:40;;;;;;;2.08;1.80;;;;;;;21.53;40.17;102134.47;20976379;28;20032;-73
2023/04/27 18:21:50;;;;;;;2.70;2.13;;;;;;;21.54;40.22;102131.44;20992749;28;20105;-73
2023/04/27 18:31:56;;;;;;;2.70;2.00;;;;;;;21.45;40.33;102121.00;20992396;28;20043;-73
2023/04/27 18:41:57;;;;;;;1.88;1.77;;;;;;;21.52;40.05;102116.09;20991622;28;20106;-73
2023/04/27 18:51:59;;;;;;;2.28;1.95;;;;;;;21.48;40.29;102107.38;20992401;28;20475;-74
2023/04/27 19:02:00;;;;;;;3.22;2.05;;;;;;;21.53;40.21;102095.47;20991909;28;20480;-74
2023/04/27 19:12:02;;;;;;;1.92;1.70;;;;;;;21.51;39.93;102076.25;20993819;28;20045;-73
2023/04/27 19:22:04;;;;;;;5.35;2.33;;;;;;;21.42;39.96;102055.53;21000780;28;20048;-73
2023/04/27 19:32:05;;;;;;;2.65;2.17;;;;;;;21.53;39.91;102073.19;20954826;28;20041;-72
2023/04/27 19:42:06;;;;;;;2.72;1.85;;;;;;;21.52;39.68;102060.38;21003630;28;20396;-72
2023/04/27 19:52:11;;;;;;;2.25;1.90;;;;;;;21.42;39.99;102037.97;21004144;28;20047;-72
2023/04/27 20:02:12;;;;;;;2.63;1.80;;;;;;;21.53;39.91;102045.34;20973289;28;20098;-72
2023/04/27 20:12:13;;;;;;;3.25;2.03;;;;;;;21.54;39.99;102027.56;20952517;28;20545;-71
2023/04/27 20:22:17;;;;;;;2.40;1.88;;;;;;;21.54;39.82;102024.78;20965882;28;20106;-73
2023/04/27 20:32:19;;;;;;;2.97;1.85;;;;;;;21.49;39.99;102016.38;20999867;28;20044;-72
2023/04/27 20:42:26;;;;;;;2.97;1.98;;;;;;;21.53;39.87;102011.94;20999966;28;20476;-73
2023/04/27 20:52:27;;;;;;;2.05;1.80;;;;;;;21.51;39.98;102014.16;20998581;28;20063;-72
2023/04/27 21:02:28;;;;;;;1.60;1.50;;;;;;;21.55;40.02;102009.75;20998829;28;20040;-71
2023/04/27 21:12:33;;;;;;;4.80;2.40;;;;;;;21.56;40.01;102017.00;20997929;28;20024;-72
2023/04/27 21:22:35;;;;;;;5.65;2.75;;;;;;;21.57;40.27;102004.75;20996207;28;20094;-72
2023/04/27 21:32:37;;;;;;;6.07;2.70;;;;;;;21.58;40.30;102006.44;20995652;28;20049;-72
2023/04/27 21:42:38;;;;;;;2.92;2.40;;;;;;;21.58;40.44;101998.09;20994495;28;20049;-73
2023/04/27 21:52:39;;;;;;;3.05;2.25;;;;;;;21.48;40.26;101986.81;20981916;28;20037;-73
2023/04/27 22:02:41;;;;;;;8.05;2.67;;;;;;;21.49;40.11;101982.94;20974947;28;20044;-73
2023/04/27 22:12:43;;;;;;;8.82;2.63;;;;;;;21.59;40.31;101994.19;20988262;28;20059;-71
2023/04/27 22:22:45;;;;;;;15.25;2.67;;;;;;;21.71;40.22;101996.81;20989895;28;20052;-71
2023/04/27 22:32:46;;;;;;;8.02;2.55;;;;;;;21.79;40.13;101988.00;20987740;28;20041;-71
2023/04/27 22:42:47;;;;;;;10.40;2.78;;;;;;;21.83;40.32;101981.66;20985220;28;20044;-71
2023/04/27 22:52:51;;;;;;;7.55;2.90;;;;;;;21.86;40.75;101971.09;21004271;28;20050;-73
2023/04/27 23:02:53;;;;;;;4.45;2.80;;;;;;;21.64;40.75;101952.47;21025015;28;20048;-73
2023/04/27 23:12:55;;;;;;;8.23;2.60;;;;;;;21.40;42.48;101967.78;21035801;28;20102;-73
2023/04/27 23:22:57;;;;;;;8.80;2.72;;;;;;;21.59;41.93;101955.22;21015603;28;20036;-71
2023/04/27 23:32:58;;;;;;;6.00;2.95;;;;;;;21.73;41.65;101962.03;21007410;28;20052;-72
2023/04/27 23:43:03;;;;;;;8.82;2.85;;;;;;;21.66;41.71;101941.06;21020478;28;20102;-72
2023/04/27 23:53:04;;;;;;;11.80;3.33;;;;;;;21.71;41.63;101975.38;21011795;28;20120;-73
